createdAt,value
2022-10-05T00:01:02.818Z,12.38
2022-10-05T00:03:37.214Z,11.73
2022-10-05T00:06:06.035Z,11.04
2022-10-05T00:08:35.607Z,11.08
2022-10-05T00:11:04.045Z,11.77
2022-10-05T00:13:32.619Z,12.48
2022-10-05T00:16:09.346Z,12.39
2022-10-05T00:18:38.132Z,12.47
2022-10-05T00:21:16.559Z,12.59
2022-10-05T00:23:44.759Z,12.42
2022-10-05T00:26:20.790Z,12.80
2022-10-05T00:28:49.059Z,12.48
2022-10-05T00:31:21.958Z,12.61
2022-10-05T00:33:50.919Z,12.46
2022-10-05T00:36:19.537Z,12.40
2022-10-05T00:38:47.879Z,12.53
2022-10-05T00:41:19.878Z,12.15
2022-10-05T00:44:30.619Z,12.70
2022-10-05T00:47:07.846Z,12.93
2022-10-05T00:49:50.116Z,12.68
2022-10-05T00:52:25.763Z,12.90
2022-10-05T00:55:01.444Z,12.94
2022-10-05T00:57:37.725Z,13.01
2022-10-05T01:00:07.947Z,13.04
2022-10-05T01:02:47.712Z,12.98
2022-10-05T01:05:22.336Z,13.04
2022-10-05T01:07:56.201Z,13.03
2022-10-05T01:10:28.705Z,12.96
2022-10-05T01:13:03.578Z,12.00
2022-10-05T01:15:35.875Z,11.97
2022-10-05T01:18:11.817Z,11.95
2022-10-05T01:20:54.421Z,12.46
2022-10-05T01:23:58.995Z,12.98
2022-10-05T01:26:39.984Z,13.08
2022-10-05T01:29:15.476Z,13.15
2022-10-05T01:31:47.282Z,13.06
2022-10-05T01:34:24.189Z,13.10
2022-10-05T01:36:58.031Z,12.86
2022-10-05T01:39:32.508Z,12.88
2022-10-05T01:42:05.940Z,12.83
2022-10-05T01:44:40.825Z,12.87
2022-10-05T01:47:11.259Z,12.71
2022-10-05T01:49:45.985Z,12.71
2022-10-05T01:52:24.943Z,13.01
2022-10-05T01:55:01.692Z,12.91
2022-10-05T01:57:38.518Z,12.71
2022-10-05T02:00:10.253Z,12.28
2022-10-05T02:02:41.286Z,12.68
2022-10-05T02:05:12.536Z,12.44
2022-10-05T02:07:43.691Z,12.43
2022-10-05T02:10:19.251Z,12.31
2022-10-05T02:12:48.253Z,12.76
2022-10-05T02:15:21.982Z,13.05
2022-10-05T02:17:52.351Z,13.02
2022-10-05T02:20:24.630Z,12.90
2022-10-05T02:22:54.812Z,12.56
2022-10-05T02:25:24.833Z,12.76
2022-10-05T02:27:56.077Z,12.86
2022-10-05T02:30:25.718Z,12.43
2022-10-05T02:32:56.563Z,12.44
2022-10-05T02:35:24.857Z,12.61
2022-10-05T02:38:01.349Z,12.21
2022-10-05T02:40:40.777Z,11.75
2022-10-05T02:43:19.398Z,12.70
2022-10-05T02:45:54.449Z,12.74
2022-10-05T02:48:30.538Z,12.92
2022-10-05T02:51:03.220Z,12.95
2022-10-05T02:53:37.005Z,12.86
2022-10-05T02:56:14.806Z,12.86
2022-10-05T02:58:47.167Z,12.57
2022-10-05T03:01:22.051Z,12.61
2022-10-05T03:03:55.171Z,11.94
2022-10-05T03:06:27.040Z,11.86
2022-10-05T03:09:01.367Z,12.23
2022-10-05T03:11:36.692Z,12.31
2022-10-05T03:14:09.190Z,12.42
2022-10-05T03:16:49.062Z,12.20
2022-10-05T03:19:26.931Z,11.32
2022-10-05T03:22:00.275Z,10.68
2022-10-05T03:24:40.254Z,11.56
2022-10-05T03:27:15.321Z,11.97
2022-10-05T03:29:49.758Z,12.06
2022-10-05T03:32:26.935Z,12.04
2022-10-05T03:34:58.305Z,12.07
2022-10-05T03:37:30.612Z,12.25
2022-10-05T03:40:04.110Z,12.13
2022-10-05T03:42:38.365Z,11.89
2022-10-05T03:45:10.650Z,11.80
2022-10-05T03:47:46.411Z,11.25
2022-10-05T03:50:32.715Z,11.67
2022-10-05T03:53:03.347Z,11.16
2022-10-05T03:55:32.312Z,10.58
2022-10-05T03:58:04.869Z,10.81
2022-10-05T04:00:33.414Z,11.02
2022-10-05T04:03:05.633Z,11.66
2022-10-05T04:05:37.680Z,11.85
2022-10-05T04:08:08.158Z,11.53
2022-10-05T04:10:40.877Z,11.76
2022-10-05T04:13:14.196Z,11.84
2022-10-05T04:15:44.619Z,11.84
2022-10-05T04:18:22.295Z,11.31
2022-10-05T04:20:53.138Z,11.52
2022-10-05T04:23:27.897Z,11.33
2022-10-05T04:25:58.822Z,11.24
2022-10-05T04:28:32.425Z,11.24
2022-10-05T04:31:01.450Z,11.34
2022-10-05T04:33:32.988Z,11.76
2022-10-05T04:36:12.435Z,11.82
2022-10-05T04:38:50.056Z,11.73
2022-10-05T04:41:30.179Z,11.72
2022-10-05T04:44:13.754Z,11.58
2022-10-05T04:47:00.341Z,11.59
2022-10-05T04:49:50.004Z,11.03
2022-10-05T04:52:24.385Z,11.52
2022-10-05T04:55:03.891Z,10.96
2022-10-05T04:57:40.092Z,10.88
2022-10-05T05:00:21.768Z,10.93
2022-10-05T05:03:02.759Z,11.28
2022-10-05T05:05:53.137Z,10.82
2022-10-05T05:08:36.894Z,11.31
2022-10-05T05:11:16.181Z,11.15
2022-10-05T05:14:08.399Z,11.15
2022-10-05T05:16:38.831Z,10.39
2022-10-05T05:19:29.489Z,10.74
2022-10-05T05:22:03.351Z,10.99
2022-10-05T05:24:41.024Z,10.90
2022-10-05T05:27:25.854Z,11.60
2022-10-05T05:30:03.813Z,11.69
2022-10-05T05:32:40.883Z,11.37
2022-10-05T05:35:35.943Z,10.80
2022-10-05T05:38:15.275Z,10.92
2022-10-05T05:40:49.399Z,11.00
2022-10-05T05:43:25.279Z,11.45
2022-10-05T05:45:59.814Z,11.56
2022-10-05T05:48:33.762Z,11.87
2022-10-05T05:51:05.739Z,11.12
2022-10-05T05:53:36.716Z,11.94
2022-10-05T05:56:09.506Z,12.04
2022-10-05T05:58:42.171Z,12.12
2022-10-05T06:01:31.723Z,12.06
2022-10-05T06:04:04.813Z,12.29
2022-10-05T06:06:35.207Z,12.57
2022-10-05T06:09:06.497Z,12.81
2022-10-05T06:11:39.471Z,12.97
2022-10-05T06:14:14.037Z,13.03
2022-10-05T06:16:46.430Z,13.12
2022-10-05T06:19:17.231Z,13.21
2022-10-05T06:21:47.706Z,13.35
2022-10-05T06:24:21.114Z,13.43
2022-10-05T06:27:21.610Z,13.66
2022-10-05T06:30:02.067Z,13.80
2022-10-05T06:32:32.155Z,13.90
2022-10-05T06:35:09.243Z,14.13
2022-10-05T06:37:58.150Z,14.46
2022-10-05T06:40:39.633Z,14.71
2022-10-05T06:43:19.420Z,14.94
2022-10-05T06:45:59.247Z,15.01
2022-10-05T06:48:36.458Z,15.18
2022-10-05T06:51:10.925Z,15.26
2022-10-05T06:53:42.157Z,15.46
2022-10-05T06:56:15.111Z,15.47
2022-10-05T06:58:52.322Z,15.82
2022-10-05T07:01:30.565Z,16.04
2022-10-05T07:04:11.070Z,15.93
2022-10-05T07:06:41.940Z,16.37
2022-10-05T07:09:25.576Z,16.47
2022-10-05T07:12:30.872Z,16.47
2022-10-05T07:15:23.989Z,17.07
2022-10-05T07:18:02.672Z,16.99
2022-10-05T07:20:33.737Z,17.23
2022-10-05T07:23:19.818Z,16.87
2022-10-05T07:25:51.481Z,17.18
2022-10-05T07:28:29.587Z,17.75
2022-10-05T07:31:01.921Z,17.55
2022-10-05T07:33:33.265Z,17.75
2022-10-05T07:36:23.292Z,18.12
2022-10-05T07:38:56.339Z,18.06
2022-10-05T07:41:32.197Z,18.41
2022-10-05T07:44:13.041Z,18.63
2022-10-05T07:46:51.556Z,18.94
2022-10-05T07:49:27.983Z,19.09
2022-10-05T07:51:59.614Z,19.32
2022-10-05T07:54:35.722Z,18.82
2022-10-05T07:57:10.833Z,19.30
2022-10-05T07:59:45.610Z,19.65
2022-10-05T08:02:20.184Z,19.89
2022-10-05T08:04:53.198Z,20.04
2022-10-05T08:07:21.443Z,19.38
2022-10-05T08:09:53.277Z,20.33
2022-10-05T08:12:28.644Z,20.49
2022-10-05T08:14:59.517Z,19.62
2022-10-05T08:17:35.053Z,20.68
2022-10-05T08:20:17.561Z,21.11
2022-10-05T08:22:48.821Z,20.10
2022-10-05T08:25:23.559Z,19.78
2022-10-05T08:27:54.345Z,21.25
2022-10-05T08:30:24.447Z,20.43
2022-10-05T08:32:57.076Z,21.37
2022-10-05T08:35:29.877Z,22.00
2022-10-05T08:37:58.221Z,20.96
2022-10-05T08:40:52.369Z,22.07
2022-10-05T08:43:37.539Z,21.61
2022-10-05T08:46:31.661Z,22.54
2022-10-05T08:49:24.016Z,22.75
2022-10-05T08:52:17.365Z,23.12
2022-10-05T08:55:16.000Z,23.05
2022-10-05T08:58:24.163Z,22.88
2022-10-05T09:00:57.291Z,23.67
2022-10-05T09:03:51.883Z,23.52
2022-10-05T09:06:52.980Z,23.43
2022-10-05T09:09:48.479Z,23.49
2022-10-05T09:12:34.158Z,23.47
2022-10-05T09:15:31.345Z,23.98
2022-10-05T09:18:26.513Z,24.14
2022-10-05T09:20:59.264Z,24.26
2022-10-05T09:23:38.079Z,24.04
2022-10-05T09:26:23.977Z,23.76
2022-10-05T09:29:02.859Z,24.40
2022-10-05T09:31:45.501Z,24.65
2022-10-05T09:34:47.780Z,25.05
2022-10-05T09:37:36.973Z,25.40
2022-10-05T09:40:23.559Z,25.41
2022-10-05T09:43:09.773Z,25.27
2022-10-05T09:46:04.554Z,24.91
2022-10-05T09:49:17.817Z,24.91
2022-10-05T09:52:18.991Z,25.05
2022-10-05T09:55:25.581Z,25.53
2022-10-05T09:58:20.364Z,24.97
2022-10-05T10:01:15.491Z,25.49
2022-10-05T10:04:08.077Z,25.27
2022-10-05T10:07:09.097Z,24.96
2022-10-05T10:09:43.489Z,25.15
2022-10-05T10:12:33.919Z,25.02
2022-10-05T10:15:23.902Z,24.70
2022-10-05T10:18:10.063Z,25.20
2022-10-05T10:20:53.130Z,25.22
2022-10-05T10:23:28.605Z,25.83
2022-10-05T10:26:28.180Z,25.78
2022-10-05T10:29:38.110Z,25.56
2022-10-05T10:32:13.592Z,26.32
2022-10-05T10:35:04.413Z,25.76
2022-10-05T10:38:22.155Z,26.48
2022-10-05T10:41:13.901Z,27.44
2022-10-05T10:43:55.359Z,27.43
2022-10-05T10:46:35.613Z,27.09
2022-10-05T10:49:07.600Z,27.36
2022-10-05T10:52:13.944Z,26.88
2022-10-05T10:55:13.877Z,27.20
2022-10-05T10:57:53.381Z,27.10
2022-10-05T11:00:30.042Z,27.39
2022-10-05T11:03:33.301Z,27.63
2022-10-05T11:06:27.378Z,27.14
2022-10-05T11:09:19.869Z,27.98
2022-10-05T11:12:23.083Z,28.69
2022-10-05T11:15:13.899Z,28.44
2022-10-05T11:18:02.854Z,27.49
2022-10-05T11:20:48.265Z,27.20
2022-10-05T11:23:38.791Z,28.54
2022-10-05T11:26:23.675Z,29.43
2022-10-05T11:29:21.017Z,27.63
2022-10-05T11:32:23.414Z,27.71
2022-10-05T11:35:39.355Z,29.12
2022-10-05T11:38:27.213Z,28.55
2022-10-05T11:41:24.482Z,28.16
2022-10-05T11:44:29.692Z,28.82
2022-10-05T11:47:01.581Z,28.75
2022-10-05T11:49:36.841Z,29.06
2022-10-05T11:52:12.598Z,28.13
2022-10-05T11:55:11.945Z,27.79
2022-10-05T11:57:47.451Z,28.45
2022-10-05T12:00:18.776Z,29.25
2022-10-05T12:03:12.402Z,29.43
2022-10-05T12:05:50.890Z,28.63
2022-10-05T12:08:29.213Z,28.44
2022-10-05T12:11:10.048Z,28.43
2022-10-05T12:13:42.034Z,29.41
2022-10-05T12:16:14.365Z,29.06
2022-10-05T12:18:47.982Z,28.70
2022-10-05T12:21:24.325Z,29.04
2022-10-05T12:23:54.980Z,28.66
2022-10-05T12:26:27.422Z,28.52
2022-10-05T12:29:00.134Z,29.80
2022-10-05T12:31:38.609Z,29.10
2022-10-05T12:34:13.181Z,30.26
2022-10-05T12:37:03.466Z,29.34
2022-10-05T12:39:40.129Z,30.69
2022-10-05T12:42:19.648Z,29.77
2022-10-05T12:45:04.513Z,30.38
2022-10-05T12:47:38.944Z,29.91
2022-10-05T12:50:21.086Z,29.79
2022-10-05T12:53:01.827Z,30.66
2022-10-05T12:55:34.911Z,29.02
2022-10-05T12:58:17.011Z,30.38
2022-10-05T13:00:51.756Z,31.16
2022-10-05T13:03:26.472Z,30.29
2022-10-05T13:06:04.355Z,30.25
2022-10-05T13:08:38.043Z,31.04
2022-10-05T13:11:14.850Z,30.33
2022-10-05T13:13:50.710Z,30.52
2022-10-05T13:16:26.374Z,30.87
2022-10-05T13:19:03.614Z,31.33
2022-10-05T13:21:47.287Z,30.96
2022-10-05T13:24:19.444Z,32.05
2022-10-05T13:26:50.669Z,30.49
2022-10-05T13:29:27.043Z,30.88
2022-10-05T13:31:57.526Z,30.14
2022-10-05T13:34:30.472Z,31.02
2022-10-05T13:37:06.965Z,30.34
2022-10-05T13:39:46.698Z,31.78
2022-10-05T13:42:17.382Z,32.05
2022-10-05T13:44:51.221Z,31.94
2022-10-05T13:47:26.692Z,32.50
2022-10-05T13:49:57.866Z,32.14
2022-10-05T13:52:32.123Z,30.72
2022-10-05T13:55:06.623Z,31.73
2022-10-05T13:57:46.059Z,32.11
2022-10-05T14:00:22.604Z,31.51
2022-10-05T14:02:57.012Z,31.06
2022-10-05T14:05:26.938Z,31.70
2022-10-05T14:07:57.066Z,30.86
2022-10-05T14:10:38.265Z,30.27
2022-10-05T14:13:22.422Z,31.94
2022-10-05T14:16:04.531Z,31.01
2022-10-05T14:18:34.548Z,31.66
2022-10-05T14:21:05.672Z,32.39
2022-10-05T14:23:34.719Z,32.37
2022-10-05T14:26:04.553Z,32.31
2022-10-05T14:28:34.605Z,32.52
2022-10-05T14:31:13.300Z,32.32
2022-10-05T14:33:42.210Z,32.41
2022-10-05T14:36:13.323Z,32.07
2022-10-05T14:38:53.080Z,31.44
2022-10-05T14:41:24.903Z,31.87
2022-10-05T14:43:56.058Z,32.09
2022-10-05T14:46:29.115Z,32.48
2022-10-05T14:49:14.332Z,31.74
2022-10-05T14:51:43.211Z,31.11
2022-10-05T14:54:27.435Z,31.80
2022-10-05T14:57:02.426Z,31.81
2022-10-05T15:00:00.580Z,32.01
2022-10-05T15:02:47.933Z,31.98
2022-10-05T15:05:18.789Z,32.11
2022-10-05T15:07:50.206Z,32.07
2022-10-05T15:10:36.124Z,31.54
2022-10-05T15:13:11.803Z,31.61
2022-10-05T15:15:44.909Z,31.76
2022-10-05T15:18:30.974Z,31.71
2022-10-05T15:21:13.457Z,31.56
2022-10-05T15:23:47.322Z,31.01
2022-10-05T15:26:26.786Z,30.67
2022-10-05T15:28:57.616Z,31.09
2022-10-05T15:31:31.770Z,31.16
2022-10-05T15:34:04.528Z,31.13
2022-10-05T15:36:36.619Z,31.03
2022-10-05T15:39:10.585Z,30.98
2022-10-05T15:41:58.845Z,31.00
2022-10-05T15:44:41.693Z,30.85
2022-10-05T15:47:18.041Z,30.71
2022-10-05T15:49:57.245Z,30.62
2022-10-05T15:52:28.712Z,30.50
2022-10-05T15:55:22.149Z,30.39
2022-10-05T15:57:55.717Z,30.16
2022-10-05T16:00:25.426Z,29.99
2022-10-05T16:02:59.206Z,29.89
2022-10-05T16:05:53.718Z,29.73
2022-10-05T16:08:55.017Z,29.59
2022-10-05T16:11:38.664Z,29.45
2022-10-05T16:14:18.291Z,29.32
2022-10-05T16:16:54.320Z,29.07
2022-10-05T16:19:26.885Z,28.77
2022-10-05T16:22:03.672Z,28.69
2022-10-05T16:24:51.671Z,28.59
2022-10-05T16:27:24.644Z,28.36
2022-10-05T16:30:00.868Z,28.21
2022-10-05T16:32:33.638Z,28.07
2022-10-05T16:35:14.569Z,27.96
2022-10-05T16:37:50.535Z,27.76
2022-10-05T16:40:28.377Z,27.61
2022-10-05T16:43:04.040Z,27.48
2022-10-05T16:45:46.008Z,27.32
2022-10-05T16:48:22.112Z,27.19
2022-10-05T16:50:58.988Z,27.00
2022-10-05T16:53:31.813Z,26.77
2022-10-05T16:56:03.269Z,26.62
2022-10-05T16:58:42.329Z,26.43
2022-10-05T17:01:17.668Z,25.78
2022-10-05T17:03:55.060Z,25.86
2022-10-05T17:06:38.102Z,25.76
2022-10-05T17:09:28.506Z,25.60
2022-10-05T17:12:06.675Z,25.50
2022-10-05T17:14:40.837Z,25.39
2022-10-05T17:17:37.473Z,25.29
2022-10-05T17:20:18.970Z,25.17
2022-10-05T17:22:52.294Z,25.03
2022-10-05T17:25:28.682Z,24.91
2022-10-05T17:27:58.497Z,24.77
2022-10-05T17:30:51.457Z,24.71
2022-10-05T17:33:27.464Z,24.53
2022-10-05T17:36:16.922Z,24.34
2022-10-05T17:38:50.714Z,24.32
2022-10-05T17:41:22.705Z,24.20
2022-10-05T17:44:24.552Z,24.13
2022-10-05T17:46:57.569Z,23.85
2022-10-05T17:50:14.284Z,23.84
2022-10-05T17:53:02.459Z,23.59
2022-10-05T17:55:44.273Z,23.61
2022-10-05T17:59:01.289Z,23.49
2022-10-05T18:01:33.917Z,23.30
2022-10-05T18:04:30.400Z,23.12
2022-10-05T18:07:04.733Z,23.12
2022-10-05T18:09:37.699Z,23.09
2022-10-05T18:12:48.810Z,23.11
2022-10-05T18:15:46.089Z,23.06
2022-10-05T18:18:47.946Z,22.91
2022-10-05T18:21:40.397Z,22.84
2022-10-05T18:24:44.243Z,22.81
2022-10-05T18:27:34.237Z,22.75
2022-10-05T18:30:08.724Z,22.58
2022-10-05T18:32:50.976Z,22.12
2022-10-05T18:35:23.027Z,22.25
2022-10-05T18:38:02.871Z,22.23
2022-10-05T18:40:40.807Z,22.21
2022-10-05T18:43:22.210Z,22.12
2022-10-05T18:46:01.406Z,21.98
2022-10-05T18:48:37.275Z,21.87
2022-10-05T18:51:13.884Z,21.78
2022-10-05T18:53:47.046Z,21.71
2022-10-05T18:56:21.777Z,21.45
2022-10-05T18:59:00.395Z,21.48
2022-10-05T19:01:52.282Z,21.38
2022-10-05T19:07:29.015Z,21.25
2022-10-05T19:10:05.980Z,21.06
2022-10-05T19:12:44.263Z,21.11
2022-10-05T19:15:20.389Z,20.93
2022-10-05T19:18:05.486Z,20.99
2022-10-05T19:20:37.541Z,20.87
2022-10-05T19:23:17.933Z,20.82
2022-10-05T19:25:51.507Z,20.84
2022-10-05T19:28:27.342Z,20.79
2022-10-05T19:31:02.828Z,20.81
2022-10-05T19:33:34.655Z,20.80
2022-10-05T19:36:25.640Z,20.89
2022-10-05T19:39:03.359Z,20.86
2022-10-05T19:41:45.300Z,20.90
2022-10-05T19:44:19.365Z,20.90
2022-10-05T19:46:55.554Z,20.94
2022-10-05T19:49:37.565Z,20.92
2022-10-05T19:52:12.955Z,20.90
2022-10-05T19:54:42.627Z,20.85
2022-10-05T19:57:18.093Z,20.89
2022-10-05T19:59:47.748Z,20.82
2022-10-05T20:02:17.575Z,20.81
2022-10-05T20:04:49.609Z,20.61
2022-10-05T20:07:21.510Z,20.45
2022-10-05T20:09:52.946Z,20.46
2022-10-05T20:12:23.616Z,20.32
2022-10-05T20:15:22.677Z,20.40
2022-10-05T20:18:08.527Z,20.27
2022-10-05T20:20:41.636Z,20.34
2022-10-05T20:23:25.332Z,20.35
2022-10-05T20:26:11.400Z,20.14
2022-10-05T20:28:41.048Z,20.09
2022-10-05T20:31:09.498Z,20.06
2022-10-05T20:33:39.051Z,19.97
2022-10-05T20:36:08.619Z,19.92
2022-10-05T20:38:40.876Z,19.86
2022-10-05T20:41:10.147Z,19.73
2022-10-05T20:43:39.384Z,19.66
2022-10-05T20:46:09.131Z,19.49
2022-10-05T20:48:37.395Z,19.44
2022-10-05T20:51:05.797Z,19.16
2022-10-05T20:53:34.699Z,19.24
2022-10-05T20:56:04.424Z,19.37
2022-10-05T20:58:32.664Z,19.40
2022-10-05T21:01:20.063Z,19.41
2022-10-05T21:03:50.595Z,19.49
2022-10-05T21:06:19.016Z,19.47
2022-10-05T21:08:47.366Z,19.42
2022-10-05T21:11:15.777Z,19.36
2022-10-05T21:13:45.662Z,19.40
2022-10-05T21:16:15.566Z,19.37
2022-10-05T21:18:46.780Z,19.39
2022-10-05T21:21:17.627Z,19.38
2022-10-05T21:23:45.933Z,19.21
2022-10-05T21:26:15.041Z,19.31
2022-10-05T21:28:43.559Z,19.28
2022-10-05T21:31:11.925Z,19.23
2022-10-05T21:33:40.182Z,19.20
2022-10-05T21:36:08.502Z,19.15
2022-10-05T21:38:38.091Z,19.09
2022-10-05T21:41:07.674Z,18.96
2022-10-05T21:43:36.053Z,18.87
2022-10-05T21:46:04.432Z,18.79
2022-10-05T21:48:33.621Z,18.79
2022-10-05T21:51:02.623Z,18.72
2022-10-05T21:53:32.979Z,18.73
2022-10-05T21:56:05.498Z,18.73
2022-10-05T21:58:33.769Z,18.60
2022-10-05T22:01:02.042Z,18.45
2022-10-05T22:03:30.441Z,18.34
2022-10-05T22:05:58.743Z,18.28
2022-10-05T22:08:30.010Z,18.22
2022-10-05T22:10:59.173Z,18.06
2022-10-05T22:13:29.194Z,18.12
2022-10-05T22:15:57.756Z,18.01
2022-10-05T22:18:26.971Z,18.05
2022-10-05T22:20:55.490Z,18.06
2022-10-05T22:23:23.707Z,18.05
2022-10-05T22:25:51.968Z,18.10
2022-10-05T22:28:20.323Z,18.05
2022-10-05T22:30:49.921Z,18.22
2022-10-05T22:33:18.151Z,18.27
2022-10-05T22:35:46.689Z,18.34
2022-10-05T22:38:15.026Z,18.39
2022-10-05T22:40:43.257Z,18.39
2022-10-05T22:43:13.118Z,18.50
2022-10-05T22:45:41.454Z,18.51
2022-10-05T22:48:11.116Z,18.58
2022-10-05T22:50:39.662Z,18.55
2022-10-05T22:53:07.976Z,18.49
2022-10-05T22:55:36.204Z,18.45
2022-10-05T22:58:04.441Z,18.47
2022-10-05T23:00:56.339Z,18.51
2022-10-05T23:03:22.895Z,18.64
2022-10-05T23:05:57.361Z,18.70
2022-10-05T23:08:26.225Z,18.67
2022-10-05T23:10:54.731Z,18.66
2022-10-05T23:13:23.449Z,18.65
2022-10-05T23:15:51.692Z,18.65
2022-10-05T23:18:19.906Z,18.66
2022-10-05T23:20:55.346Z,18.66
2022-10-05T23:23:24.047Z,18.55
2022-10-05T23:25:53.015Z,18.40
2022-10-05T23:28:21.652Z,18.15
2022-10-05T23:30:49.939Z,18.25
2022-10-05T23:33:18.233Z,18.18
2022-10-05T23:35:46.474Z,18.14
2022-10-05T23:38:16.176Z,18.13
2022-10-05T23:40:47.444Z,18.08
2022-10-05T23:43:15.922Z,17.69
2022-10-05T23:45:45.643Z,17.98
2022-10-05T23:48:14.412Z,17.93
2022-10-05T23:50:43.983Z,17.94
2022-10-05T23:53:12.493Z,17.87
2022-10-05T23:55:42.672Z,17.89
2022-10-05T23:58:11.964Z,17.81
